createdAt,value
2019-02-25T00:01:00.764Z,56.80
2019-02-25T00:06:07.492Z,55.83
2019-02-25T00:11:19.499Z,55.62
2019-02-25T00:16:25.111Z,55.89
2019-02-25T00:21:30.507Z,55.72
2019-02-25T00:26:36.408Z,56.59
2019-02-25T00:31:41.494Z,57.12
2019-02-25T00:36:46.734Z,57.50
2019-02-25T00:41:51.764Z,57.39
2019-02-25T00:46:56.924Z,57.03
2019-02-25T00:52:01.959Z,57.43
2019-02-25T00:57:08.969Z,58.34
2019-02-25T01:02:13.722Z,58.83
2019-02-25T01:07:18.797Z,58.27
2019-02-25T01:12:24.960Z,58.25
2019-02-25T01:17:30.501Z,58.07
2019-02-25T01:22:39.324Z,58.48
2019-02-25T01:27:44.432Z,59.26
2019-02-25T01:32:49.459Z,59.85
2019-02-25T01:37:54.536Z,59.66
2019-02-25T01:42:59.525Z,59.68
2019-02-25T01:48:04.616Z,59.85
2019-02-25T01:53:10.899Z,59.83
2019-02-25T01:58:16.017Z,59.86
2019-02-25T02:03:21.053Z,60.46
2019-02-25T02:08:26.140Z,61.40
2019-02-25T02:13:31.565Z,61.83
2019-02-25T02:18:47.018Z,62.11
2019-02-25T02:23:53.281Z,62.00
2019-02-25T02:28:58.661Z,61.86
2019-02-25T02:34:03.772Z,62.13
2019-02-25T02:39:08.762Z,62.16
2019-02-25T02:44:13.904Z,62.62
2019-02-25T02:49:18.910Z,62.37
2019-02-25T02:54:23.974Z,62.24
2019-02-25T02:59:29.027Z,62.08
2019-02-25T03:04:34.070Z,61.67
2019-02-25T03:09:39.644Z,61.54
2019-02-25T03:14:44.708Z,61.44
2019-02-25T03:19:49.780Z,61.74
2019-02-25T03:24:56.312Z,61.55
2019-02-25T03:30:01.358Z,61.37
2019-02-25T03:35:06.661Z,61.36
2019-02-25T03:40:13.556Z,62.16
2019-02-25T03:45:18.892Z,62.68
2019-02-25T03:50:23.912Z,62.53
2019-02-25T03:55:28.905Z,62.43
2019-02-25T04:00:33.929Z,62.61
2019-02-25T04:05:39.080Z,62.50
2019-02-25T04:10:44.096Z,62.59
2019-02-25T04:15:49.227Z,63.07
2019-02-25T04:20:54.483Z,63.65
2019-02-25T04:25:59.573Z,63.74
2019-02-25T04:31:04.557Z,63.40
2019-02-25T04:36:09.660Z,63.05
2019-02-25T04:41:14.732Z,63.25
2019-02-25T04:46:20.856Z,63.63
2019-02-25T04:51:26.038Z,63.45
2019-02-25T04:56:31.305Z,62.97
2019-02-25T05:01:36.405Z,63.13
2019-02-25T05:06:41.528Z,62.95
2019-02-25T05:11:46.516Z,62.95
2019-02-25T05:16:51.833Z,63.31
2019-02-25T05:21:57.125Z,63.84
2019-02-25T05:27:02.251Z,64.08
2019-02-25T05:32:07.705Z,64.42
2019-02-25T05:37:12.712Z,64.55
2019-02-25T05:42:18.121Z,63.95
2019-02-25T05:47:23.204Z,63.92
2019-02-25T05:52:28.222Z,63.88
2019-02-25T05:57:33.642Z,63.54
2019-02-25T06:02:38.748Z,63.28
2019-02-25T06:07:44.260Z,63.52
2019-02-25T06:12:49.665Z,62.99
2019-02-25T06:17:54.693Z,63.17
2019-02-25T06:22:59.836Z,63.34
2019-02-25T06:28:04.942Z,63.60
2019-02-25T06:33:10.493Z,63.69
2019-02-25T06:38:15.511Z,63.63
2019-02-25T06:43:20.530Z,64.21
2019-02-25T06:48:28.422Z,64.26
2019-02-25T06:53:33.526Z,64.55
2019-02-25T06:58:39.972Z,64.17
2019-02-25T07:03:46.756Z,63.77
2019-02-25T07:09:08.332Z,63.75
2019-02-25T07:14:33.768Z,63.40
2019-02-25T07:20:01.210Z,63.26
2019-02-25T07:25:37.369Z,62.73
2019-02-25T07:31:04.101Z,62.05
2019-02-25T07:36:26.583Z,62.26
2019-02-25T07:42:06.062Z,61.89
2019-02-25T07:47:16.572Z,62.14
2019-02-25T07:52:35.568Z,61.45
2019-02-25T07:58:11.594Z,60.52
2019-02-25T08:03:22.776Z,59.23
2019-02-25T08:08:49.660Z,58.89
2019-02-25T08:14:04.298Z,58.94
2019-02-25T08:19:34.916Z,58.13
2019-02-25T08:24:55.638Z,57.35
2019-02-25T08:30:19.644Z,56.37
2019-02-25T08:36:20.224Z,55.09
2019-02-25T08:41:33.052Z,54.25
2019-02-25T08:46:43.631Z,53.41
2019-02-25T08:51:48.760Z,53.67
2019-02-25T08:56:53.859Z,53.29
2019-02-25T09:01:58.901Z,52.16
2019-02-25T09:07:04.419Z,52.17
2019-02-25T09:12:09.908Z,52.13
2019-02-25T09:17:16.156Z,51.10
2019-02-25T09:22:21.314Z,51.17
2019-02-25T09:27:26.318Z,50.67
2019-02-25T09:32:30.488Z,48.07
2019-02-25T09:37:34.724Z,37.92
2019-02-25T09:42:38.820Z,28.66
2019-02-25T09:47:42.814Z,24.27
2019-02-25T09:52:46.706Z,21.91
2019-02-25T09:57:50.584Z,17.99
2019-02-25T10:02:55.380Z,17.78
2019-02-25T10:07:59.302Z,16.45
2019-02-25T10:13:03.288Z,16.12
2019-02-25T10:18:07.653Z,15.27
2019-02-25T10:23:11.734Z,14.11
2019-02-25T10:28:15.660Z,13.19
2019-02-25T10:33:19.648Z,14.49
2019-02-25T10:38:23.800Z,14.23
2019-02-25T10:43:29.622Z,14.80
2019-02-25T10:48:34.618Z,18.86
2019-02-25T10:53:39.598Z,19.07
2019-02-25T10:58:44.774Z,21.73
2019-02-25T11:03:52.026Z,21.14
2019-02-25T11:09:04.602Z,23.44
2019-02-25T11:14:11.213Z,22.70
2019-02-25T11:19:16.777Z,21.96
2019-02-25T11:24:23.374Z,22.04
2019-02-25T11:29:28.624Z,22.65
2019-02-25T11:34:35.590Z,24.15
2019-02-25T11:39:40.544Z,23.15
2019-02-25T11:44:45.547Z,24.24
2019-02-25T11:49:50.943Z,23.56
2019-02-25T11:54:56.292Z,23.41
2019-02-25T12:00:01.710Z,23.96
2019-02-25T12:05:08.738Z,22.62
2019-02-25T12:10:13.934Z,22.40
2019-02-25T12:15:18.096Z,21.85
2019-02-25T12:20:22.136Z,21.00
2019-02-25T12:25:26.136Z,21.40
2019-02-25T12:30:31.680Z,20.75
2019-02-25T12:35:35.802Z,20.35
2019-02-25T12:40:40.244Z,19.94
2019-02-25T12:45:44.527Z,17.96
2019-02-25T12:50:48.448Z,16.06
2019-02-25T12:55:52.368Z,17.10
2019-02-25T13:00:56.384Z,17.60
2019-02-25T13:06:01.602Z,16.92
2019-02-25T13:11:06.936Z,16.23
2019-02-25T13:16:12.056Z,16.13
2019-02-25T13:21:17.556Z,18.13
2019-02-25T13:26:21.646Z,17.89
2019-02-25T13:31:26.742Z,16.71
2019-02-25T13:36:31.794Z,17.32
2019-02-25T13:41:36.934Z,17.46
2019-02-25T13:46:42.047Z,17.55
2019-02-25T13:51:47.036Z,17.91
2019-02-25T13:56:56.416Z,18.44
2019-02-25T14:02:02.581Z,19.10
2019-02-25T14:07:08.124Z,18.79
2019-02-25T14:12:12.456Z,18.33
2019-02-25T14:17:16.486Z,17.81
2019-02-25T14:22:21.257Z,18.60
2019-02-25T14:27:27.128Z,17.71
2019-02-25T14:32:34.594Z,18.22
2019-02-25T14:37:39.521Z,20.68
2019-02-25T14:42:46.877Z,22.25
2019-02-25T14:47:55.389Z,23.63
2019-02-25T14:53:00.628Z,23.65
2019-02-25T14:58:10.721Z,22.64
2019-02-25T15:03:20.066Z,23.12
2019-02-25T15:08:26.058Z,23.28
2019-02-25T15:13:32.668Z,23.51
2019-02-25T15:18:37.328Z,24.29
2019-02-25T15:23:41.452Z,24.90
2019-02-25T15:28:46.545Z,25.20
2019-02-25T15:33:50.599Z,25.90
2019-02-25T15:38:54.691Z,25.98
2019-02-25T15:44:02.065Z,26.13
2019-02-25T15:49:04.857Z,26.47
2019-02-25T15:54:10.180Z,27.13
2019-02-25T15:59:14.258Z,27.35
2019-02-25T16:04:18.564Z,27.26
2019-02-25T16:09:25.472Z,27.66
2019-02-25T16:14:29.799Z,28.46
2019-02-25T16:19:41.523Z,28.13
2019-02-25T16:24:43.601Z,28.35
2019-02-25T16:29:49.121Z,28.86
2019-02-25T16:34:55.608Z,29.37
2019-02-25T16:40:03.845Z,29.88
2019-02-25T16:45:14.158Z,30.15
2019-02-25T16:50:21.086Z,31.00
2019-02-25T16:55:27.800Z,31.61
2019-02-25T17:00:35.466Z,32.29
2019-02-25T17:05:42.087Z,32.96
2019-02-25T17:10:48.973Z,33.36
2019-02-25T17:15:54.198Z,34.52
2019-02-25T17:20:59.429Z,34.52
2019-02-25T17:26:05.980Z,35.24
2019-02-25T17:31:14.328Z,36.14
2019-02-25T17:36:19.374Z,36.41
2019-02-25T17:41:25.027Z,37.76
2019-02-25T17:46:32.540Z,37.76
2019-02-25T17:51:37.402Z,37.45
2019-02-25T17:56:43.124Z,37.61
2019-02-25T18:01:50.553Z,37.74
2019-02-25T18:06:55.798Z,38.12
2019-02-25T18:12:02.180Z,38.51
2019-02-25T18:17:08.317Z,38.90
2019-02-25T18:22:16.578Z,39.41
2019-02-25T18:27:20.875Z,39.37
2019-02-25T18:32:27.872Z,39.66
2019-02-25T18:37:35.285Z,40.19
2019-02-25T18:42:42.523Z,40.40
2019-02-25T18:47:47.686Z,40.91
2019-02-25T18:52:54.624Z,41.47
2019-02-25T18:58:00.292Z,42.23
2019-02-25T19:03:05.853Z,42.58
2019-02-25T19:08:15.072Z,43.12
2019-02-25T19:13:23.350Z,43.84
2019-02-25T19:18:29.474Z,43.98
2019-02-25T19:23:37.704Z,44.04
2019-02-25T19:28:45.965Z,44.12
2019-02-25T19:33:49.672Z,44.72
2019-02-25T19:38:55.824Z,45.40
2019-02-25T19:44:03.502Z,45.48
2019-02-25T19:49:09.330Z,45.25
2019-02-25T19:54:16.763Z,45.53
2019-02-25T19:59:24.077Z,46.22
2019-02-25T20:04:33.474Z,46.55
2019-02-25T20:09:40.322Z,47.12
2019-02-25T20:14:46.580Z,47.23
2019-02-25T20:19:50.393Z,47.42
2019-02-25T20:24:57.964Z,47.95
2019-02-25T20:30:05.355Z,47.73
2019-02-25T20:35:14.015Z,48.50
2019-02-25T20:40:21.830Z,48.74
2019-02-25T20:45:27.741Z,49.33
2019-02-25T20:50:34.142Z,49.69
2019-02-25T20:55:39.198Z,50.06
2019-02-25T21:00:46.607Z,50.19
2019-02-25T21:05:52.181Z,50.56
2019-02-25T21:10:59.166Z,50.68
2019-02-25T21:16:04.846Z,50.86
2019-02-25T21:21:13.980Z,51.42
2019-02-25T21:26:18.638Z,51.79
2019-02-25T21:31:24.511Z,51.94
2019-02-25T21:36:32.143Z,52.35
2019-02-25T21:41:39.115Z,52.49
2019-02-25T21:46:49.599Z,52.85
2019-02-25T21:51:52.087Z,53.05
2019-02-25T21:56:59.068Z,53.50
2019-02-25T22:02:04.523Z,53.69
2019-02-25T22:07:09.618Z,53.75
2019-02-25T22:12:14.814Z,54.26
2019-02-25T22:17:21.952Z,54.45
2019-02-25T22:22:28.853Z,54.43
2019-02-25T22:27:35.294Z,54.61
2019-02-25T22:32:41.243Z,54.62
2019-02-25T22:37:49.721Z,54.53
2019-02-25T22:42:54.959Z,54.81
2019-02-25T22:48:01.381Z,54.78
2019-02-25T22:53:08.903Z,54.99
2019-02-25T22:58:14.943Z,55.10
2019-02-25T23:03:22.812Z,55.18
2019-02-25T23:08:27.882Z,55.29
2019-02-25T23:13:32.981Z,55.46
2019-02-25T23:18:40.595Z,56.35
2019-02-25T23:23:45.620Z,56.36
2019-02-25T23:28:51.464Z,56.44
2019-02-25T23:33:57.679Z,56.82
2019-02-25T23:39:03.733Z,57.03
2019-02-25T23:44:12.632Z,56.99
2019-02-25T23:49:26.872Z,57.35
2019-02-25T23:54:26.060Z,57.72
2019-02-25T23:59:30.486Z,57.82
